sensor_id;sensor_type;location;lat;lon;timestamp;P1;durP1;ratioP1;P2;durP2;ratioP2
12072;SDS011;6098;49.004;8.372;2023-02-28T00:15:47;6.48;;;3.27;;
12072;SDS011;6098;49.004;8.372;2023-02-28T00:31:57;4.87;;;3.27;;
12072;SDS011;6098;49.004;8.372;2023-02-28T00:48:12;4.10;;;2.96;;
12072;SDS011;6098;49.004;8.372;2023-02-28T01:03:30;5.66;;;3.86;;
12072;SDS011;6098;49.004;8.372;2023-02-28T01:19:40;4.67;;;3.14;;
12072;SDS011;6098;49.004;8.372;2023-02-28T01:36:05;4.99;;;3.44;;
12072;SDS011;6098;49.004;8.372;2023-02-28T01:52:27;5.21;;;3.33;;
12072;SDS011;6098;49.004;8.372;2023-02-28T02:08:41;4.91;;;3.10;;
12072;SDS011;6098;49.004;8.372;2023-02-28T02:41:36;6.29;;;3.77;;
12072;SDS011;6098;49.004;8.372;2023-02-28T02:57:53;4.62;;;3.36;;
12072;SDS011;6098;49.004;8.372;2023-02-28T03:14:24;5.48;;;3.80;;
12072;SDS011;6098;49.004;8.372;2023-02-28T03:29:20;5.57;;;3.80;;
12072;SDS011;6098;49.004;8.372;2023-02-28T03:44:09;5.47;;;3.87;;
12072;SDS011;6098;49.004;8.372;2023-02-28T03:59:04;6.04;;;3.90;;
12072;SDS011;6098;49.004;8.372;2023-02-28T04:14:09;8.82;;;3.96;;
12072;SDS011;6098;49.004;8.372;2023-02-28T04:28:59;5.38;;;3.89;;
12072;SDS011;6098;49.004;8.372;2023-02-28T04:43:48;6.32;;;4.53;;
12072;SDS011;6098;49.004;8.372;2023-02-28T04:58:37;6.38;;;4.17;;
12072;SDS011;6098;49.004;8.372;2023-02-28T05:13:27;6.16;;;4.56;;
12072;SDS011;6098;49.004;8.372;2023-02-28T05:28:17;7.01;;;4.71;;
12072;SDS011;6098;49.004;8.372;2023-02-28T05:43:09;7.27;;;4.70;;
12072;SDS011;6098;49.004;8.372;2023-02-28T05:57:57;9.59;;;5.03;;
12072;SDS011;6098;49.004;8.372;2023-02-28T06:12:47;10.28;;;5.22;;
12072;SDS011;6098;49.004;8.372;2023-02-28T06:27:38;8.11;;;4.80;;
12072;SDS011;6098;49.004;8.372;2023-02-28T06:42:28;7.87;;;4.86;;
12072;SDS011;6098;49.004;8.372;2023-02-28T06:57:18;9.11;;;5.51;;
12072;SDS011;6098;49.004;8.372;2023-02-28T07:12:09;9.47;;;5.23;;
12072;SDS011;6098;49.004;8.372;2023-02-28T07:27:00;10.60;;;5.27;;
12072;SDS011;6098;49.004;8.372;2023-02-28T07:41:49;10.09;;;5.53;;
12072;SDS011;6098;49.004;8.372;2023-02-28T07:56:40;8.42;;;5.46;;
12072;SDS011;6098;49.004;8.372;2023-02-28T08:11:29;8.62;;;5.40;;
12072;SDS011;6098;49.004;8.372;2023-02-28T08:26:19;9.26;;;5.47;;
12072;SDS011;6098;49.004;8.372;2023-02-28T08:41:10;9.47;;;5.90;;
12072;SDS011;6098;49.004;8.372;2023-02-28T08:56:01;11.39;;;7.20;;
12072;SDS011;6098;49.004;8.372;2023-02-28T09:10:50;10.69;;;5.98;;
12072;SDS011;6098;49.004;8.372;2023-02-28T09:25:45;11.08;;;6.80;;
12072;SDS011;6098;49.004;8.372;2023-02-28T09:40:39;12.79;;;7.53;;
12072;SDS011;6098;49.004;8.372;2023-02-28T10:10:42;13.18;;;7.32;;
12072;SDS011;6098;49.004;8.372;2023-02-28T10:25:32;12.44;;;7.13;;
12072;SDS011;6098;49.004;8.372;2023-02-28T10:55:14;11.73;;;7.92;;
12072;SDS011;6098;49.004;8.372;2023-02-28T11:10:02;14.40;;;7.97;;
12072;SDS011;6098;49.004;8.372;2023-02-28T11:24:52;9.11;;;7.02;;
12072;SDS011;6098;49.004;8.372;2023-02-28T11:39:43;12.60;;;7.61;;
12072;SDS011;6098;49.004;8.372;2023-02-28T11:54:35;9.43;;;6.68;;
12072;SDS011;6098;49.004;8.372;2023-02-28T12:39:54;9.77;;;7.11;;
12072;SDS011;6098;49.004;8.372;2023-02-28T12:54:46;8.06;;;6.43;;
12072;SDS011;6098;49.004;8.372;2023-02-28T13:09:35;9.62;;;7.19;;
12072;SDS011;6098;49.004;8.372;2023-02-28T13:54:31;9.26;;;7.89;;
12072;SDS011;6098;49.004;8.372;2023-02-28T14:09:37;10.88;;;7.89;;
12072;SDS011;6098;49.004;8.372;2023-02-28T14:39:44;10.48;;;7.47;;
12072;SDS011;6098;49.004;8.372;2023-02-28T14:54:38;10.37;;;7.87;;
12072;SDS011;6098;49.004;8.372;2023-02-28T15:09:29;11.00;;;8.21;;
12072;SDS011;6098;49.004;8.372;2023-02-28T15:24:21;9.81;;;7.71;;
12072;SDS011;6098;49.004;8.372;2023-02-28T15:54:14;12.82;;;7.98;;
12072;SDS011;6098;49.004;8.372;2023-02-28T16:09:06;10.11;;;8.03;;
12072;SDS011;6098;49.004;8.372;2023-02-28T16:23:55;11.46;;;8.02;;
12072;SDS011;6098;49.004;8.372;2023-02-28T16:38:46;10.91;;;8.17;;
12072;SDS011;6098;49.004;8.372;2023-02-28T16:53:36;16.34;;;9.59;;
12072;SDS011;6098;49.004;8.372;2023-02-28T17:08:26;11.51;;;8.09;;
12072;SDS011;6098;49.004;8.372;2023-02-28T17:23:15;15.41;;;8.92;;
12072;SDS011;6098;49.004;8.372;2023-02-28T17:53:05;14.12;;;8.76;;
12072;SDS011;6098;49.004;8.372;2023-02-28T18:07:54;9.64;;;7.39;;
12072;SDS011;6098;49.004;8.372;2023-02-28T18:22:44;13.42;;;8.26;;
12072;SDS011;6098;49.004;8.372;2023-02-28T18:37:34;15.84;;;8.51;;
12072;SDS011;6098;49.004;8.372;2023-02-28T18:52:23;13.80;;;8.73;;
12072;SDS011;6098;49.004;8.372;2023-02-28T19:07:21;14.68;;;8.57;;
12072;SDS011;6098;49.004;8.372;2023-02-28T19:22:11;15.56;;;8.66;;
12072;SDS011;6098;49.004;8.372;2023-02-28T19:37:00;14.19;;;8.34;;
12072;SDS011;6098;49.004;8.372;2023-02-28T19:51:50;13.82;;;8.81;;
12072;SDS011;6098;49.004;8.372;2023-02-28T20:06:40;13.91;;;8.23;;
12072;SDS011;6098;49.004;8.372;2023-02-28T20:21:30;12.66;;;7.96;;
12072;SDS011;6098;49.004;8.372;2023-02-28T20:36:25;13.70;;;7.98;;
12072;SDS011;6098;49.004;8.372;2023-02-28T20:51:15;14.56;;;8.58;;
12072;SDS011;6098;49.004;8.372;2023-02-28T21:06:05;13.50;;;8.39;;
12072;SDS011;6098;49.004;8.372;2023-02-28T21:21:08;16.44;;;8.68;;
12072;SDS011;6098;49.004;8.372;2023-02-28T21:36:01;16.17;;;9.08;;
12072;SDS011;6098;49.004;8.372;2023-02-28T21:51:04;16.22;;;9.30;;
12072;SDS011;6098;49.004;8.372;2023-02-28T22:05:54;14.57;;;8.57;;
12072;SDS011;6098;49.004;8.372;2023-02-28T22:20:44;15.84;;;9.16;;
12072;SDS011;6098;49.004;8.372;2023-02-28T22:35:35;16.91;;;9.43;;
12072;SDS011;6098;49.004;8.372;2023-02-28T22:50:24;17.58;;;10.16;;
12072;SDS011;6098;49.004;8.372;2023-02-28T23:05:14;16.10;;;8.87;;
12072;SDS011;6098;49.004;8.372;2023-02-28T23:20:04;17.59;;;9.99;;
12072;SDS011;6098;49.004;8.372;2023-02-28T23:34:54;14.59;;;9.60;;
12072;SDS011;6098;49.004;8.372;2023-02-28T23:49:43;18.84;;;9.73;;
